sensor_id;sensor_type;location;lat;lon;timestamp;P1;durP1;ratioP1;P2;durP2;ratioP2
77038;SDS011;65970;50.476;4.840;2024-01-06T00:04:49;0.75;;;0.75;;
77038;SDS011;65970;50.476;4.840;2024-01-06T00:09:49;1.00;;;0.80;;
77038;SDS011;65970;50.476;4.840;2024-01-06T00:14:50;1.05;;;0.60;;
77038;SDS011;65970;50.476;4.840;2024-01-06T00:19:50;1.23;;;0.40;;
77038;SDS011;65970;50.476;4.840;2024-01-06T00:24:51;0.38;;;0.30;;
77038;SDS011;65970;50.476;4.840;2024-01-06T00:29:52;0.98;;;0.70;;
77038;SDS011;65970;50.476;4.840;2024-01-06T00:34:52;1.13;;;0.50;;
77038;SDS011;65970;50.476;4.840;2024-01-06T00:39:53;0.55;;;0.55;;
77038;SDS011;65970;50.476;4.840;2024-01-06T00:44:54;1.17;;;0.50;;
77038;SDS011;65970;50.476;4.840;2024-01-06T00:49:54;0.63;;;0.50;;
77038;SDS011;65970;50.476;4.840;2024-01-06T00:54:55;0.82;;;0.80;;
77038;SDS011;65970;50.476;4.840;2024-01-06T00:59:55;0.40;;;0.40;;
77038;SDS011;65970;50.476;4.840;2024-01-06T01:04:56;0.50;;;0.50;;
77038;SDS011;65970;50.476;4.840;2024-01-06T01:09:57;0.40;;;0.40;;
77038;SDS011;65970;50.476;4.840;2024-01-06T01:14:57;1.48;;;0.70;;
77038;SDS011;65970;50.476;4.840;2024-01-06T01:19:58;0.50;;;0.50;;
77038;SDS011;65970;50.476;4.840;2024-01-06T01:24:58;0.43;;;0.43;;
77038;SDS011;65970;50.476;4.840;2024-01-06T01:29:59;0.85;;;0.50;;
77038;SDS011;65970;50.476;4.840;2024-01-06T01:34:59;1.10;;;0.43;;
77038;SDS011;65970;50.476;4.840;2024-01-06T01:40:00;0.93;;;0.40;;
77038;SDS011;65970;50.476;4.840;2024-01-06T01:45:00;0.40;;;0.38;;
77038;SDS011;65970;50.476;4.840;2024-01-06T01:50:01;1.30;;;0.60;;
77038;SDS011;65970;50.476;4.840;2024-01-06T01:55:03;0.65;;;0.65;;
77038;SDS011;65970;50.476;4.840;2024-01-06T02:00:04;0.50;;;0.43;;
77038;SDS011;65970;50.476;4.840;2024-01-06T02:05:05;0.47;;;0.43;;
77038;SDS011;65970;50.476;4.840;2024-01-06T02:10:06;1.40;;;0.77;;
77038;SDS011;65970;50.476;4.840;2024-01-06T02:15:07;0.38;;;0.38;;
77038;SDS011;65970;50.476;4.840;2024-01-06T02:20:08;3.78;;;0.57;;
77038;SDS011;65970;50.476;4.840;2024-01-06T02:25:09;1.05;;;0.93;;
77038;SDS011;65970;50.476;4.840;2024-01-06T02:30:10;1.35;;;0.70;;
77038;SDS011;65970;50.476;4.840;2024-01-06T02:35:10;0.47;;;0.47;;
77038;SDS011;65970;50.476;4.840;2024-01-06T02:40:11;1.58;;;0.95;;
77038;SDS011;65970;50.476;4.840;2024-01-06T02:45:13;0.50;;;0.50;;
77038;SDS011;65970;50.476;4.840;2024-01-06T02:50:14;0.63;;;0.63;;
77038;SDS011;65970;50.476;4.840;2024-01-06T02:55:14;0.75;;;0.65;;
77038;SDS011;65970;50.476;4.840;2024-01-06T03:00:15;0.68;;;0.68;;
77038;SDS011;65970;50.476;4.840;2024-01-06T03:05:16;0.82;;;0.80;;
77038;SDS011;65970;50.476;4.840;2024-01-06T03:10:19;0.75;;;0.60;;
77038;SDS011;65970;50.476;4.840;2024-01-06T03:15:19;0.75;;;0.75;;
77038;SDS011;65970;50.476;4.840;2024-01-06T03:20:20;0.98;;;0.70;;
77038;SDS011;65970;50.476;4.840;2024-01-06T03:25:20;1.00;;;0.82;;
77038;SDS011;65970;50.476;4.840;2024-01-06T03:30:21;0.80;;;0.70;;
77038;SDS011;65970;50.476;4.840;2024-01-06T03:35:21;0.80;;;0.80;;
77038;SDS011;65970;50.476;4.840;2024-01-06T03:40:22;0.60;;;0.60;;
77038;SDS011;65970;50.476;4.840;2024-01-06T03:45:22;0.65;;;0.60;;
77038;SDS011;65970;50.476;4.840;2024-01-06T03:50:23;1.58;;;0.85;;
77038;SDS011;65970;50.476;4.840;2024-01-06T03:55:23;1.13;;;0.88;;
77038;SDS011;65970;50.476;4.840;2024-01-06T04:00:25;0.52;;;0.52;;
77038;SDS011;65970;50.476;4.840;2024-01-06T04:05:26;2.50;;;0.68;;
77038;SDS011;65970;50.476;4.840;2024-01-06T04:10:26;0.40;;;0.38;;
77038;SDS011;65970;50.476;4.840;2024-01-06T04:15:27;0.73;;;0.50;;
77038;SDS011;65970;50.476;4.840;2024-01-06T04:20:27;0.40;;;0.40;;
77038;SDS011;65970;50.476;4.840;2024-01-06T04:25:28;0.30;;;0.30;;
77038;SDS011;65970;50.476;4.840;2024-01-06T04:30:28;0.60;;;0.60;;
77038;SDS011;65970;50.476;4.840;2024-01-06T04:35:29;0.40;;;0.40;;
77038;SDS011;65970;50.476;4.840;2024-01-06T04:40:29;0.82;;;0.50;;
77038;SDS011;65970;50.476;4.840;2024-01-06T04:45:30;0.35;;;0.35;;
77038;SDS011;65970;50.476;4.840;2024-01-06T04:50:31;0.57;;;0.57;;
77038;SDS011;65970;50.476;4.840;2024-01-06T04:55:31;0.82;;;0.60;;
77038;SDS011;65970;50.476;4.840;2024-01-06T05:00:32;0.70;;;0.50;;
77038;SDS011;65970;50.476;4.840;2024-01-06T05:05:32;0.85;;;0.57;;
77038;SDS011;65970;50.476;4.840;2024-01-06T05:10:33;1.75;;;0.82;;
77038;SDS011;65970;50.476;4.840;2024-01-06T05:15:33;0.90;;;0.77;;
77038;SDS011;65970;50.476;4.840;2024-01-06T05:20:34;0.93;;;0.70;;
77038;SDS011;65970;50.476;4.840;2024-01-06T05:25:34;0.85;;;0.35;;
77038;SDS011;65970;50.476;4.840;2024-01-06T05:30:35;0.75;;;0.75;;
77038;SDS011;65970;50.476;4.840;2024-01-06T05:35:35;1.17;;;0.70;;
77038;SDS011;65970;50.476;4.840;2024-01-06T05:40:36;0.73;;;0.70;;
77038;SDS011;65970;50.476;4.840;2024-01-06T05:45:37;2.88;;;1.38;;
77038;SDS011;65970;50.476;4.840;2024-01-06T05:50:38;2.80;;;2.50;;
77038;SDS011;65970;50.476;4.840;2024-01-06T05:55:38;5.95;;;3.40;;
77038;SDS011;65970;50.476;4.840;2024-01-06T06:00:39;5.47;;;3.83;;
77038;SDS011;65970;50.476;4.840;2024-01-06T06:05:40;9.13;;;4.05;;
77038;SDS011;65970;50.476;4.840;2024-01-06T06:10:40;4.50;;;2.92;;
77038;SDS011;65970;50.476;4.840;2024-01-06T06:15:41;3.53;;;2.50;;
77038;SDS011;65970;50.476;4.840;2024-01-06T06:20:41;3.72;;;2.30;;
77038;SDS011;65970;50.476;4.840;2024-01-06T06:25:42;3.53;;;2.85;;
77038;SDS011;65970;50.476;4.840;2024-01-06T06:30:42;3.63;;;2.75;;
77038;SDS011;65970;50.476;4.840;2024-01-06T06:35:43;2.60;;;2.10;;
77038;SDS011;65970;50.476;4.840;2024-01-06T06:40:43;2.75;;;2.13;;
77038;SDS011;65970;50.476;4.840;2024-01-06T06:45:44;4.18;;;3.40;;
77038;SDS011;65970;50.476;4.840;2024-01-06T06:50:45;3.83;;;2.53;;
77038;SDS011;65970;50.476;4.840;2024-01-06T06:55:45;4.53;;;2.97;;
77038;SDS011;65970;50.476;4.840;2024-01-06T07:00:46;4.78;;;2.42;;
77038;SDS011;65970;50.476;4.840;2024-01-06T07:05:46;3.97;;;3.20;;
77038;SDS011;65970;50.476;4.840;2024-01-06T07:10:47;5.25;;;3.22;;
77038;SDS011;65970;50.476;4.840;2024-01-06T07:15:47;3.10;;;2.20;;
77038;SDS011;65970;50.476;4.840;2024-01-06T07:20:48;3.85;;;2.75;;
77038;SDS011;65970;50.476;4.840;2024-01-06T07:25:49;7.05;;;4.53;;
77038;SDS011;65970;50.476;4.840;2024-01-06T07:30:49;12.38;;;5.90;;
77038;SDS011;65970;50.476;4.840;2024-01-06T07:35:50;4.13;;;3.08;;
77038;SDS011;65970;50.476;4.840;2024-01-06T07:40:50;6.03;;;3.08;;
77038;SDS011;65970;50.476;4.840;2024-01-06T07:45:51;4.32;;;3.33;;
77038;SDS011;65970;50.476;4.840;2024-01-06T07:50:52;4.68;;;3.05;;
77038;SDS011;65970;50.476;4.840;2024-01-06T07:55:52;4.28;;;3.00;;
77038;SDS011;65970;50.476;4.840;2024-01-06T08:00:53;4.32;;;2.85;;
77038;SDS011;65970;50.476;4.840;2024-01-06T08:05:53;3.88;;;2.70;;
77038;SDS011;65970;50.476;4.840;2024-01-06T08:10:54;3.60;;;2.63;;
77038;SDS011;65970;50.476;4.840;2024-01-06T08:15:54;2.60;;;2.20;;
77038;SDS011;65970;50.476;4.840;2024-01-06T08:20:55;2.03;;;1.83;;
77038;SDS011;65970;50.476;4.840;2024-01-06T08:25:55;1.73;;;1.42;;
77038;SDS011;65970;50.476;4.840;2024-01-06T08:30:57;2.47;;;1.55;;
77038;SDS011;65970;50.476;4.840;2024-01-06T08:35:57;2.30;;;1.65;;
77038;SDS011;65970;50.476;4.840;2024-01-06T08:40:58;1.42;;;0.77;;
77038;SDS011;65970;50.476;4.840;2024-01-06T08:45:58;0.90;;;0.90;;
77038;SDS011;65970;50.476;4.840;2024-01-06T08:51:01;0.90;;;0.80;;
77038;SDS011;65970;50.476;4.840;2024-01-06T08:56:03;2.28;;;1.40;;
77038;SDS011;65970;50.476;4.840;2024-01-06T09:01:03;1.15;;;0.77;;
77038;SDS011;65970;50.476;4.840;2024-01-06T09:06:04;1.90;;;0.98;;
77038;SDS011;65970;50.476;4.840;2024-01-06T09:11:04;1.17;;;0.90;;
77038;SDS011;65970;50.476;4.840;2024-01-06T09:16:05;1.80;;;1.25;;
77038;SDS011;65970;50.476;4.840;2024-01-06T09:21:06;1.52;;;1.33;;
77038;SDS011;65970;50.476;4.840;2024-01-06T09:26:06;1.95;;;1.77;;
77038;SDS011;65970;50.476;4.840;2024-01-06T09:31:07;3.28;;;2.00;;
77038;SDS011;65970;50.476;4.840;2024-01-06T09:36:07;3.10;;;2.08;;
77038;SDS011;65970;50.476;4.840;2024-01-06T09:41:08;4.50;;;2.45;;
77038;SDS011;65970;50.476;4.840;2024-01-06T09:46:15;2.35;;;1.92;;
77038;SDS011;65970;50.476;4.840;2024-01-06T09:51:23;6.00;;;3.95;;
77038;SDS011;65970;50.476;4.840;2024-01-06T09:56:25;6.57;;;3.80;;
77038;SDS011;65970;50.476;4.840;2024-01-06T10:01:26;6.90;;;4.65;;
77038;SDS011;65970;50.476;4.840;2024-01-06T10:06:27;7.43;;;4.28;;
77038;SDS011;65970;50.476;4.840;2024-01-06T10:11:27;5.85;;;3.65;;
77038;SDS011;65970;50.476;4.840;2024-01-06T10:16:28;4.20;;;2.65;;
77038;SDS011;65970;50.476;4.840;2024-01-06T10:21:29;3.83;;;2.15;;
77038;SDS011;65970;50.476;4.840;2024-01-06T10:26:31;2.60;;;2.00;;
77038;SDS011;65970;50.476;4.840;2024-01-06T10:31:32;2.72;;;1.85;;
77038;SDS011;65970;50.476;4.840;2024-01-06T10:36:33;2.63;;;1.77;;
77038;SDS011;65970;50.476;4.840;2024-01-06T10:41:43;4.32;;;2.13;;
77038;SDS011;65970;50.476;4.840;2024-01-06T10:46:45;2.72;;;2.00;;
77038;SDS011;65970;50.476;4.840;2024-01-06T10:51:48;4.53;;;1.65;;
77038;SDS011;65970;50.476;4.840;2024-01-06T10:56:49;2.15;;;1.63;;
77038;SDS011;65970;50.476;4.840;2024-01-06T11:01:52;2.30;;;1.55;;
77038;SDS011;65970;50.476;4.840;2024-01-06T11:06:53;1.60;;;1.10;;
77038;SDS011;65970;50.476;4.840;2024-01-06T11:11:54;1.38;;;0.98;;
77038;SDS011;65970;50.476;4.840;2024-01-06T11:16:55;2.97;;;1.08;;
77038;SDS011;65970;50.476;4.840;2024-01-06T11:21:56;2.22;;;1.38;;
77038;SDS011;65970;50.476;4.840;2024-01-06T11:26:56;3.58;;;1.45;;
77038;SDS011;65970;50.476;4.840;2024-01-06T11:37:37;1.70;;;1.20;;
77038;SDS011;65970;50.476;4.840;2024-01-06T11:48:09;1.48;;;1.02;;
77038;SDS011;65970;50.476;4.840;2024-01-06T11:53:11;6.47;;;2.47;;
77038;SDS011;65970;50.476;4.840;2024-01-06T11:58:11;7.05;;;2.83;;
77038;SDS011;65970;50.476;4.840;2024-01-06T12:03:15;3.08;;;2.05;;
77038;SDS011;65970;50.476;4.840;2024-01-06T12:08:16;2.90;;;1.85;;
77038;SDS011;65970;50.476;4.840;2024-01-06T12:13:19;2.60;;;2.22;;
77038;SDS011;65970;50.476;4.840;2024-01-06T12:18:21;1.52;;;1.25;;
77038;SDS011;65970;50.476;4.840;2024-01-06T12:23:25;3.55;;;2.20;;
77038;SDS011;65970;50.476;4.840;2024-01-06T12:28:26;4.30;;;2.03;;
77038;SDS011;65970;50.476;4.840;2024-01-06T12:33:27;2.38;;;1.65;;
77038;SDS011;65970;50.476;4.840;2024-01-06T12:38:29;1.98;;;1.40;;
77038;SDS011;65970;50.476;4.840;2024-01-06T12:43:30;2.20;;;1.33;;
77038;SDS011;65970;50.476;4.840;2024-01-06T12:48:30;3.17;;;2.00;;
77038;SDS011;65970;50.476;4.840;2024-01-06T12:53:31;2.28;;;1.42;;
77038;SDS011;65970;50.476;4.840;2024-01-06T12:58:31;1.58;;;1.10;;
77038;SDS011;65970;50.476;4.840;2024-01-06T13:03:32;1.90;;;0.98;;
77038;SDS011;65970;50.476;4.840;2024-01-06T13:08:33;2.25;;;1.52;;
77038;SDS011;65970;50.476;4.840;2024-01-06T13:13:33;1.70;;;1.23;;
77038;SDS011;65970;50.476;4.840;2024-01-06T13:18:34;1.88;;;1.45;;
77038;SDS011;65970;50.476;4.840;2024-01-06T13:23:34;1.90;;;1.40;;
77038;SDS011;65970;50.476;4.840;2024-01-06T13:28:35;2.47;;;1.75;;
77038;SDS011;65970;50.476;4.840;2024-01-06T13:33:36;2.70;;;1.83;;
77038;SDS011;65970;50.476;4.840;2024-01-06T13:38:36;4.97;;;1.88;;
77038;SDS011;65970;50.476;4.840;2024-01-06T13:43:37;3.20;;;2.50;;
77038;SDS011;65970;50.476;4.840;2024-01-06T13:48:38;3.83;;;1.80;;
77038;SDS011;65970;50.476;4.840;2024-01-06T13:53:38;2.60;;;1.70;;
77038;SDS011;65970;50.476;4.840;2024-01-06T13:58:39;2.45;;;1.70;;
77038;SDS011;65970;50.476;4.840;2024-01-06T14:03:39;3.03;;;1.80;;
77038;SDS011;65970;50.476;4.840;2024-01-06T14:08:40;3.50;;;1.92;;
77038;SDS011;65970;50.476;4.840;2024-01-06T14:13:41;3.63;;;1.42;;
77038;SDS011;65970;50.476;4.840;2024-01-06T14:18:42;2.20;;;1.48;;
77038;SDS011;65970;50.476;4.840;2024-01-06T14:23:42;1.88;;;1.58;;
77038;SDS011;65970;50.476;4.840;2024-01-06T14:28:43;2.17;;;1.58;;
77038;SDS011;65970;50.476;4.840;2024-01-06T14:33:43;4.22;;;1.48;;
77038;SDS011;65970;50.476;4.840;2024-01-06T14:38:44;2.65;;;1.60;;
77038;SDS011;65970;50.476;4.840;2024-01-06T14:43:44;3.30;;;2.17;;
77038;SDS011;65970;50.476;4.840;2024-01-06T14:48:45;2.35;;;1.85;;
77038;SDS011;65970;50.476;4.840;2024-01-06T14:53:45;2.70;;;1.70;;
77038;SDS011;65970;50.476;4.840;2024-01-06T14:58:46;2.10;;;1.88;;
77038;SDS011;65970;50.476;4.840;2024-01-06T15:03:46;2.28;;;1.58;;
77038;SDS011;65970;50.476;4.840;2024-01-06T15:08:47;2.28;;;1.92;;
77038;SDS011;65970;50.476;4.840;2024-01-06T15:13:47;4.28;;;2.55;;
77038;SDS011;65970;50.476;4.840;2024-01-06T15:18:48;4.10;;;2.72;;
77038;SDS011;65970;50.476;4.840;2024-01-06T15:23:49;6.25;;;2.88;;
77038;SDS011;65970;50.476;4.840;2024-01-06T15:28:49;2.97;;;2.35;;
77038;SDS011;65970;50.476;4.840;2024-01-06T15:33:50;3.35;;;2.33;;
77038;SDS011;65970;50.476;4.840;2024-01-06T15:38:50;1.90;;;1.60;;
77038;SDS011;65970;50.476;4.840;2024-01-06T15:43:51;3.90;;;2.20;;
77038;SDS011;65970;50.476;4.840;2024-01-06T15:48:51;3.28;;;2.35;;
77038;SDS011;65970;50.476;4.840;2024-01-06T15:53:52;3.85;;;2.88;;
77038;SDS011;65970;50.476;4.840;2024-01-06T15:58:53;2.70;;;2.50;;
77038;SDS011;65970;50.476;4.840;2024-01-06T16:03:53;4.05;;;2.33;;
77038;SDS011;65970;50.476;4.840;2024-01-06T16:08:54;5.57;;;2.40;;
77038;SDS011;65970;50.476;4.840;2024-01-06T16:13:54;1.98;;;1.67;;
77038;SDS011;65970;50.476;4.840;2024-01-06T16:18:55;2.50;;;1.88;;
77038;SDS011;65970;50.476;4.840;2024-01-06T16:23:56;1.63;;;1.25;;
77038;SDS011;65970;50.476;4.840;2024-01-06T16:28:56;3.88;;;2.30;;
77038;SDS011;65970;50.476;4.840;2024-01-06T16:33:57;5.47;;;1.63;;
77038;SDS011;65970;50.476;4.840;2024-01-06T16:38:57;2.90;;;2.60;;
77038;SDS011;65970;50.476;4.840;2024-01-06T16:43:58;3.40;;;2.58;;
77038;SDS011;65970;50.476;4.840;2024-01-06T16:48:58;5.65;;;3.65;;
77038;SDS011;65970;50.476;4.840;2024-01-06T16:53:59;5.68;;;2.90;;
77038;SDS011;65970;50.476;4.840;2024-01-06T16:58:59;4.30;;;2.67;;
77038;SDS011;65970;50.476;4.840;2024-01-06T17:04:00;3.67;;;2.20;;
77038;SDS011;65970;50.476;4.840;2024-01-06T17:09:00;3.97;;;2.22;;
77038;SDS011;65970;50.476;4.840;2024-01-06T17:14:01;3.05;;;2.30;;
77038;SDS011;65970;50.476;4.840;2024-01-06T17:19:01;2.78;;;1.83;;
77038;SDS011;65970;50.476;4.840;2024-01-06T17:24:02;2.58;;;1.75;;
77038;SDS011;65970;50.476;4.840;2024-01-06T17:29:03;5.03;;;2.78;;
77038;SDS011;65970;50.476;4.840;2024-01-06T17:34:04;3.22;;;2.58;;
77038;SDS011;65970;50.476;4.840;2024-01-06T17:39:04;2.70;;;1.67;;
77038;SDS011;65970;50.476;4.840;2024-01-06T17:44:05;3.35;;;1.92;;
77038;SDS011;65970;50.476;4.840;2024-01-06T17:49:05;1.58;;;1.33;;
77038;SDS011;65970;50.476;4.840;2024-01-06T17:54:06;2.00;;;1.23;;
77038;SDS011;65970;50.476;4.840;2024-01-06T17:59:06;5.25;;;2.20;;
77038;SDS011;65970;50.476;4.840;2024-01-06T18:04:07;2.83;;;1.70;;
77038;SDS011;65970;50.476;4.840;2024-01-06T18:09:07;4.30;;;2.45;;
77038;SDS011;65970;50.476;4.840;2024-01-06T18:14:08;2.75;;;2.25;;
77038;SDS011;65970;50.476;4.840;2024-01-06T18:19:08;5.03;;;2.53;;
77038;SDS011;65970;50.476;4.840;2024-01-06T18:24:10;5.85;;;3.92;;
77038;SDS011;65970;50.476;4.840;2024-01-06T18:29:10;6.70;;;4.53;;
77038;SDS011;65970;50.476;4.840;2024-01-06T18:34:11;7.35;;;3.28;;
77038;SDS011;65970;50.476;4.840;2024-01-06T18:39:12;6.63;;;3.80;;
77038;SDS011;65970;50.476;4.840;2024-01-06T18:44:12;4.97;;;3.58;;
77038;SDS011;65970;50.476;4.840;2024-01-06T18:49:13;4.72;;;3.30;;
77038;SDS011;65970;50.476;4.840;2024-01-06T18:54:13;5.95;;;3.08;;
77038;SDS011;65970;50.476;4.840;2024-01-06T18:59:14;5.07;;;2.85;;
77038;SDS011;65970;50.476;4.840;2024-01-06T19:04:14;3.65;;;2.78;;
77038;SDS011;65970;50.476;4.840;2024-01-06T19:09:15;3.17;;;2.10;;
77038;SDS011;65970;50.476;4.840;2024-01-06T19:14:15;4.25;;;2.53;;
77038;SDS011;65970;50.476;4.840;2024-01-06T19:19:16;3.15;;;2.45;;
77038;SDS011;65970;50.476;4.840;2024-01-06T19:24:16;3.63;;;2.88;;
77038;SDS011;65970;50.476;4.840;2024-01-06T19:29:17;4.00;;;2.72;;
77038;SDS011;65970;50.476;4.840;2024-01-06T19:34:18;2.47;;;2.15;;
77038;SDS011;65970;50.476;4.840;2024-01-06T19:39:18;3.05;;;2.60;;
77038;SDS011;65970;50.476;4.840;2024-01-06T19:44:19;2.67;;;2.08;;
77038;SDS011;65970;50.476;4.840;2024-01-06T19:49:19;2.38;;;1.88;;
77038;SDS011;65970;50.476;4.840;2024-01-06T19:54:20;2.72;;;1.98;;
77038;SDS011;65970;50.476;4.840;2024-01-06T19:59:20;2.72;;;2.28;;
77038;SDS011;65970;50.476;4.840;2024-01-06T20:04:21;3.22;;;1.80;;
77038;SDS011;65970;50.476;4.840;2024-01-06T20:09:21;2.95;;;2.13;;
77038;SDS011;65970;50.476;4.840;2024-01-06T20:14:22;2.38;;;1.80;;
77038;SDS011;65970;50.476;4.840;2024-01-06T20:19:22;2.88;;;2.40;;
77038;SDS011;65970;50.476;4.840;2024-01-06T20:24:23;2.80;;;2.30;;
77038;SDS011;65970;50.476;4.840;2024-01-06T20:29:23;4.53;;;2.30;;
77038;SDS011;65970;50.476;4.840;2024-01-06T20:34:24;3.00;;;2.70;;
77038;SDS011;65970;50.476;4.840;2024-01-06T20:39:25;2.63;;;2.00;;
77038;SDS011;65970;50.476;4.840;2024-01-06T20:44:25;3.72;;;2.13;;
77038;SDS011;65970;50.476;4.840;2024-01-06T20:49:26;2.50;;;2.15;;
77038;SDS011;65970;50.476;4.840;2024-01-06T20:54:26;2.38;;;2.00;;
77038;SDS011;65970;50.476;4.840;2024-01-06T20:59:27;3.25;;;2.10;;
77038;SDS011;65970;50.476;4.840;2024-01-06T21:04:27;3.17;;;2.47;;
77038;SDS011;65970;50.476;4.840;2024-01-06T21:09:28;3.05;;;2.30;;
77038;SDS011;65970;50.476;4.840;2024-01-06T21:14:28;3.72;;;2.55;;
77038;SDS011;65970;50.476;4.840;2024-01-06T21:19:29;3.78;;;2.60;;
77038;SDS011;65970;50.476;4.840;2024-01-06T21:24:30;3.80;;;2.75;;
77038;SDS011;65970;50.476;4.840;2024-01-06T21:29:30;3.55;;;2.50;;
77038;SDS011;65970;50.476;4.840;2024-01-06T21:34:31;3.35;;;2.65;;
77038;SDS011;65970;50.476;4.840;2024-01-06T21:39:31;3.67;;;2.60;;
77038;SDS011;65970;50.476;4.840;2024-01-06T21:44:32;4.70;;;2.83;;
77038;SDS011;65970;50.476;4.840;2024-01-06T21:49:32;2.53;;;1.73;;
77038;SDS011;65970;50.476;4.840;2024-01-06T21:54:33;4.20;;;1.85;;
77038;SDS011;65970;50.476;4.840;2024-01-06T21:59:33;3.30;;;2.05;;
77038;SDS011;65970;50.476;4.840;2024-01-06T22:04:34;3.40;;;2.55;;
77038;SDS011;65970;50.476;4.840;2024-01-06T22:09:34;2.70;;;2.08;;
77038;SDS011;65970;50.476;4.840;2024-01-06T22:14:35;2.13;;;1.92;;
77038;SDS011;65970;50.476;4.840;2024-01-06T22:19:36;2.92;;;2.22;;
77038;SDS011;65970;50.476;4.840;2024-01-06T22:24:36;3.08;;;2.13;;
77038;SDS011;65970;50.476;4.840;2024-01-06T22:29:37;3.22;;;2.40;;
77038;SDS011;65970;50.476;4.840;2024-01-06T22:34:42;2.47;;;1.88;;
77038;SDS011;65970;50.476;4.840;2024-01-06T22:39:43;3.47;;;2.72;;
77038;SDS011;65970;50.476;4.840;2024-01-06T22:44:44;4.53;;;3.03;;
77038;SDS011;65970;50.476;4.840;2024-01-06T22:49:44;2.78;;;2.58;;
77038;SDS011;65970;50.476;4.840;2024-01-06T22:54:45;4.55;;;2.83;;
77038;SDS011;65970;50.476;4.840;2024-01-06T22:59:45;2.97;;;2.72;;
77038;SDS011;65970;50.476;4.840;2024-01-06T23:04:46;3.97;;;2.78;;
77038;SDS011;65970;50.476;4.840;2024-01-06T23:09:46;3.88;;;3.33;;
77038;SDS011;65970;50.476;4.840;2024-01-06T23:14:47;3.72;;;2.90;;
77038;SDS011;65970;50.476;4.840;2024-01-06T23:19:47;5.53;;;3.38;;
77038;SDS011;65970;50.476;4.840;2024-01-06T23:24:48;3.90;;;3.20;;
77038;SDS011;65970;50.476;4.840;2024-01-06T23:29:49;5.88;;;3.00;;
77038;SDS011;65970;50.476;4.840;2024-01-06T23:34:49;3.72;;;3.13;;
77038;SDS011;65970;50.476;4.840;2024-01-06T23:39:50;3.88;;;3.35;;
77038;SDS011;65970;50.476;4.840;2024-01-06T23:44:50;4.45;;;3.17;;
77038;SDS011;65970;50.476;4.840;2024-01-06T23:49:52;3.25;;;2.83;;
77038;SDS011;65970;50.476;4.840;2024-01-06T23:54:52;4.15;;;3.75;;
77038;SDS011;65970;50.476;4.840;2024-01-06T23:59:53;5.22;;;3.65;;
